Flight Track Log - Related Links

Times and Time Zones

All times are in EDT time to prevent confusion due to time zone crossing. See the FLG3800 flight status page for this flight to view local times or setup timezone preferences in your user account.

Time Position Orientation Groundspeed Altitude Reporting Facility
EDT Latitude Longitude Course Direction KTS MPH feet Rate Location/Type
Thu 09:41:42 PM 42.2314 -83.3342 82° East 144 166 1,500  Level Cleveland Center
Thu 09:43:07 PM 42.2931 -83.2808 33° Northeast 211 243 4,100 1,800 Climbing Cleveland Center
Thu 09:44:00 PM 42.2878 -82.8942 75° East  Level FlightAware Approximate
Thu 09:44:02 PM 42.3442 -83.2353 33° Northeast 273 314 5,700  Level Cleveland Center
Thu 09:45:00 PM 42.3175 -82.7422 82° East  Level FlightAware Approximate
Thu 09:45:21 PM 42.4172 -83.1342 46° Northeast 302 348 9,100  Level Cleveland Center
Thu 09:46:00 PM 42.3330 -82.5864 82° East  Level FlightAware Approximate
Thu 09:46:09 PM 42.4106 -83.0581 97° East 307 353 10,900  Level Cleveland Center
Thu 09:47:09 PM 42.4031 -82.9256 94° East 329 379 12,000 1,350 Climbing Cleveland Center
Thu 09:48:09 PM 42.3911 -82.7872 97° East 353 406 13,600 1,700 Climbing Cleveland Center
Thu 09:49:09 PM 42.3794 -82.6294 96° East 368 423 15,400 1,550 Climbing Cleveland Center
Thu 09:50:09 PM 42.3675 -82.4772 96° East 388 447 16,700 1,150 Climbing Cleveland Center
Thu 09:51:09 PM 42.3617 -82.3225 93° East 400 460 17,700 1,000 Climbing Cleveland Center
Thu 09:52:09 PM 42.3536 -82.1594 94° East 413 475 18,700 1,050 Climbing Cleveland Center
Thu 09:53:09 PM 42.3472 -81.9964 93° East 431 496 19,800 1,050 Climbing Cleveland Center
Thu 09:54:09 PM 42.3408 -81.8333 93° East 436 502 20,800 1,000 Climbing Cleveland Center
Thu 09:55:09 PM 42.3319 -81.6700 94° East 441 507 21,800 1,000 Climbing Cleveland Center
Thu 09:56:09 PM 42.3272 -81.5072 92° East 436 502 22,800 1,000 Climbing Cleveland Center
Thu 09:57:09 PM 42.3181 -81.3442 94° East 436 502 23,800 1,000 Climbing Cleveland Center
Thu 09:58:09 PM 42.3106 -81.1811 94° East 446 513 24,800 1,050 Climbing Cleveland Center
Thu 09:59:09 PM 42.3031 -81.0156 93° East 441 507 25,900 950 Climbing Cleveland Center
Thu 10:00:09 PM 42.2931 -80.8694 95° East 441 507 26,700 550 Climbing Cleveland Center
Thu 10:01:09 PM 42.2850 -80.7067 94° East 441 507 27,000 150 Climbing Cleveland Center
Thu 10:02:09 PM 42.2808 -80.5325 92° East 449 517 27,000  Level Cleveland Center
Thu 10:03:09 PM 42.3183 -80.3669 73° East 442 509 27,000  Level Cleveland Center
Thu 10:04:09 PM 42.3553 -80.2011 73° East 453 521 27,000  Level Cleveland Center
Thu 10:05:09 PM 42.3942 -80.0125 74° East 464 534 27,000  Level Cleveland Center
Thu 10:06:09 PM 42.4308 -79.8575 72° East 464 534 27,000  Level Cleveland Center
Thu 10:07:09 PM 42.4819 -79.6936 67° East 464 534 27,000  Level Cleveland Center
Thu 10:08:09 PM 42.5389 -79.5378 64° Northeast 458 527 27,000  Level Cleveland Center
Thu 10:09:09 PM 42.5978 -79.3789 63° Northeast 458 527 27,000  Level Cleveland Center
Thu 10:10:09 PM 42.6564 -79.2197 63° Northeast 463 533 27,000  Level Cleveland Center
Thu 10:11:09 PM 42.7106 -79.0575 66° East 468 539 27,000  Level Cleveland Center
Thu 10:12:09 PM 42.7689 -78.8975 64° Northeast 468 539 27,000  Level Cleveland Center
Thu 10:13:09 PM 42.8269 -78.7375 64° Northeast 468 539 27,000  Level Cleveland Center
Thu 10:14:09 PM 42.8825 -78.5800 64° Northeast 468 539 27,000 100 Level Cleveland Center
Thu 10:15:09 PM 42.9361 -78.4194 65° Northeast 468 539 27,200 400 Climbing Cleveland Center
Thu 10:16:09 PM 42.9933 -78.2642 63° Northeast 468 539 27,800 600 Climbing Cleveland Center
Thu 10:17:09 PM 43.0464 -78.1058 65° Northeast 463 533 28,400 600 Climbing Cleveland Center
Thu 10:18:09 PM 43.1014 -77.9472 65° Northeast 457 526 29,000 300 Climbing Cleveland Center
Thu 10:19:09 PM 43.1558 -77.7886 65° Northeast 457 526 29,000  Level Cleveland Center
Thu 10:20:09 PM 43.2103 -77.6294 65° Northeast 451 519 29,000  Level Cleveland Center
Thu 10:21:56 PM 43.3083 -77.3372 65° Northeast 467 537 29,000  Level Boston Center
Thu 10:22:56 PM 43.3653 -77.1733 64° Northeast 472 543 29,000  Level Boston Center
Thu 10:23:56 PM 43.4200 -77.0061 66° East 472 543 29,000  Level Boston Center
Thu 10:24:56 PM 43.4789 -76.8358 64° Northeast 472 543 29,000  Level Boston Center
Thu 10:25:56 PM 43.5422 -76.6483 65° Northeast 472 543 29,000  Level Boston Center
Thu 10:26:56 PM 43.5983 -76.4772 66° East 477 549 29,000  Level Boston Center
Thu 10:27:56 PM 43.6544 -76.3031 66° East 477 549 29,000  Level Boston Center
Thu 10:28:56 PM 43.7100 -76.1314 66° East 487 560 29,000  Level Boston Center
Thu 10:29:56 PM 43.7656 -75.9564 66° East 492 566 29,000  Level Boston Center
Thu 10:30:56 PM 43.8231 -75.7783 66° East 492 566 29,000  Level Boston Center
Thu 10:31:56 PM 43.8783 -75.5972 67° East 492 566 29,000  Level Boston Center
Thu 10:32:56 PM 43.9283 -75.4383 66° East 492 566 29,000 -250 Level Boston Center
Thu 10:33:56 PM 43.9853 -75.2506 67° East 502 578 28,500 -1,250 Descending Boston Center
Thu 10:34:56 PM 44.0394 -75.0769 66° East 502 578 26,500 -2,050 Descending Boston Center
Thu 10:35:56 PM 44.0867 -74.9200 67° East 475 547 24,400 -2,100 Descending Boston Center
Thu 10:36:56 PM 44.1358 -74.7572 67° East 456 525 22,300 -2,100 Descending Boston Center
Thu 10:37:56 PM 44.1847 -74.6000 67° East 445 512 20,200 -2,100 Descending Boston Center
Thu 10:38:56 PM 44.2314 -74.4422 68° East 439 505 18,100 -1,800 Descending Boston Center
Thu 10:39:56 PM 44.2778 -74.2900 67° East 432 497 16,600 -1,450 Descending Boston Center
Thu 10:40:56 PM 44.3114 -74.1317 73° East 432 497 15,200 -1,350 Descending Boston Center
Thu 10:41:56 PM 44.3386 -73.9697 77° East 423 487 13,900 -1,900 Descending Boston Center
Thu 10:42:56 PM 44.3633 -73.8222 77° East 411 473 11,400 -2,050 Descending Boston Center
Thu 10:43:56 PM 44.3858 -73.6864 77° East 374 430 9,800 -1,850 Descending Boston Center
Thu 10:44:56 PM 44.4058 -73.5647 77° East 326 375 7,700 -2,150 Descending Boston Center
Thu 10:45:56 PM 44.4236 -73.4517 78° East 303 349 5,500 -2,000 Descending Boston Center
Thu 10:46:56 PM 44.4369 -73.3500 80° East 274 315 3,700 -850 Descending Boston Center
Thu 10:47:56 PM 44.4019 -73.2739 123° Southeast 224 258 3,800  Climbing Boston Center
Thu 10:48:56 PM 44.3692 -73.2008 122° Southeast 212 244 3,700 -100 Descending Boston Center

Login

Don't have an account? Register now (free) for customized features, flight alerts, and more!